createdAt,value
2022-08-16T00:01:44.071Z,21.50
2022-08-16T00:04:14.884Z,15.00
2022-08-16T00:06:44.562Z,14.00
2022-08-16T00:09:14.176Z,13.25
2022-08-16T00:11:45.463Z,15.50
2022-08-16T00:14:17.850Z,14.00
2022-08-16T00:17:05.505Z,20.00
2022-08-16T00:19:41.708Z,16.25
2022-08-16T00:22:13.370Z,21.50
2022-08-16T00:24:44.940Z,20.75
2022-08-16T00:27:17.412Z,15.25
2022-08-16T00:29:47.318Z,17.75
2022-08-16T00:32:18.026Z,14.50
2022-08-16T00:34:52.930Z,16.25
2022-08-16T00:37:58.730Z,18.75
2022-08-16T00:40:33.394Z,21.25
2022-08-16T00:43:11.905Z,15.00
2022-08-16T00:45:58.489Z,19.25
2022-08-16T00:48:44.205Z,14.75
2022-08-16T00:51:17.484Z,18.50
2022-08-16T00:53:48.366Z,14.00
2022-08-16T00:56:58.053Z,13.75
2022-08-16T00:59:23.775Z,14.75
2022-08-16T01:01:53.855Z,15.00
2022-08-16T01:04:30.149Z,14.75
2022-08-16T01:07:02.981Z,17.25
2022-08-16T01:09:34.234Z,14.00
2022-08-16T01:12:08.531Z,20.25
2022-08-16T01:14:41.150Z,16.25
2022-08-16T01:17:14.960Z,16.00
2022-08-16T01:19:46.376Z,15.00
2022-08-16T01:22:48.345Z,14.00
2022-08-16T01:25:33.672Z,15.25
2022-08-16T01:28:08.512Z,15.00
2022-08-16T01:30:49.865Z,14.00
2022-08-16T01:33:22.597Z,15.50
2022-08-16T01:35:56.170Z,18.00
2022-08-16T01:38:29.173Z,16.00
2022-08-16T01:41:01.853Z,19.75
2022-08-16T01:43:33.175Z,15.25
2022-08-16T01:46:29.576Z,14.00
2022-08-16T01:48:57.582Z,16.75
2022-08-16T01:51:28.563Z,15.00
2022-08-16T01:53:59.732Z,15.00
2022-08-16T01:56:31.133Z,16.00
2022-08-16T01:59:03.019Z,13.75
2022-08-16T02:01:35.337Z,15.00
2022-08-16T02:04:11.368Z,13.75
2022-08-16T02:06:46.683Z,17.25
2022-08-16T02:09:22.736Z,19.00
2022-08-16T02:11:56.102Z,15.00
2022-08-16T02:14:27.668Z,14.00
2022-08-16T02:17:00.098Z,15.00
2022-08-16T02:19:59.255Z,15.50
2022-08-16T02:22:34.371Z,16.00
2022-08-16T02:25:10.765Z,15.75
2022-08-16T02:27:41.329Z,16.00
2022-08-16T02:30:36.014Z,18.00
2022-08-16T02:33:06.481Z,23.50
2022-08-16T02:35:49.643Z,18.00
2022-08-16T02:38:28.117Z,18.00
2022-08-16T02:40:59.128Z,21.50
2022-08-16T02:43:33.184Z,19.25
2022-08-16T02:46:08.654Z,20.50
2022-08-16T02:48:47.482Z,18.50
2022-08-16T02:51:23.406Z,20.50
2022-08-16T02:53:53.536Z,24.75
2022-08-16T02:56:25.911Z,17.25
2022-08-16T02:59:02.596Z,15.00
2022-08-16T03:01:41.676Z,20.25
2022-08-16T03:04:41.159Z,19.00
2022-08-16T03:07:12.672Z,26.00
2022-08-16T03:09:48.176Z,21.00
2022-08-16T03:12:30.516Z,18.75
2022-08-16T03:15:25.594Z,16.75
2022-08-16T03:18:34.532Z,17.75
2022-08-16T03:21:39.503Z,17.00
2022-08-16T03:24:28.875Z,19.00
2022-08-16T03:27:01.925Z,18.75
2022-08-16T03:29:34.622Z,14.00
2022-08-16T03:32:06.788Z,15.50
2022-08-16T03:34:36.196Z,18.50
2022-08-16T03:37:06.432Z,13.75
2022-08-16T03:39:42.569Z,19.00
2022-08-16T03:42:20.408Z,14.00
2022-08-16T03:44:52.559Z,16.00
2022-08-16T03:47:36.886Z,17.00
2022-08-16T03:50:26.261Z,14.50
2022-08-16T03:53:02.199Z,17.00
2022-08-16T03:55:45.170Z,15.75
2022-08-16T03:58:15.832Z,15.75
2022-08-16T04:00:45.506Z,18.00
2022-08-16T04:03:19.209Z,15.75
2022-08-16T04:05:54.169Z,15.00
2022-08-16T04:08:27.038Z,14.50
2022-08-16T04:11:01.461Z,13.00
2022-08-16T04:14:01.250Z,15.00
2022-08-16T04:16:27.271Z,15.00
2022-08-16T04:19:15.963Z,14.25
2022-08-16T04:21:47.605Z,12.25
2022-08-16T04:24:28.681Z,15.00
2022-08-16T04:26:59.885Z,15.25
2022-08-16T04:29:44.201Z,13.50
2022-08-16T04:32:19.828Z,12.00
2022-08-16T04:34:55.474Z,12.50
2022-08-16T04:37:32.538Z,12.75
2022-08-16T04:40:36.719Z,13.50
2022-08-16T04:43:25.390Z,13.00
2022-08-16T04:46:01.119Z,13.00
2022-08-16T04:48:42.816Z,13.50
2022-08-16T04:51:17.824Z,13.00
2022-08-16T04:54:12.381Z,12.25
2022-08-16T04:56:53.859Z,13.75
2022-08-16T04:59:29.634Z,13.00
2022-08-16T05:02:40.941Z,14.75
2022-08-16T05:04:56.040Z,12.00
2022-08-16T05:07:25.628Z,14.00
2022-08-16T05:10:19.607Z,13.00
2022-08-16T05:12:54.015Z,13.00
2022-08-16T05:15:23.946Z,14.25
2022-08-16T05:17:58.564Z,16.75
2022-08-16T05:20:38.964Z,13.00
2022-08-16T05:23:24.166Z,12.75
2022-08-16T05:26:20.114Z,13.00
2022-08-16T05:29:03.644Z,15.00
2022-08-16T05:32:01.912Z,14.25
2022-08-16T05:34:48.162Z,13.00
2022-08-16T05:37:20.306Z,12.00
2022-08-16T05:39:55.200Z,13.00
2022-08-16T05:42:35.847Z,13.00
2022-08-16T05:45:23.766Z,12.50
2022-08-16T05:48:08.886Z,15.75
2022-08-16T05:50:59.634Z,15.00
2022-08-16T05:53:41.355Z,14.25
2022-08-16T05:56:20.071Z,13.00
2022-08-16T05:59:00.315Z,13.00
2022-08-16T06:01:38.879Z,14.50
2022-08-16T06:04:12.729Z,13.00
2022-08-16T06:06:56.364Z,13.25
2022-08-16T06:09:43.640Z,12.75
2022-08-16T06:12:26.704Z,14.00
2022-08-16T06:15:07.683Z,12.00
2022-08-16T06:17:47.346Z,13.00
2022-08-16T06:20:55.878Z,13.00
2022-08-16T06:23:34.643Z,16.00
2022-08-16T06:26:16.239Z,13.00
2022-08-16T06:29:05.295Z,15.00
2022-08-16T06:31:48.986Z,13.75
2022-08-16T06:35:13.964Z,14.00
2022-08-16T06:38:32.994Z,13.00
2022-08-16T06:41:24.344Z,13.25
2022-08-16T06:44:21.351Z,13.00
2022-08-16T06:46:56.861Z,13.50
2022-08-16T06:49:27.039Z,13.00
2022-08-16T06:52:03.168Z,13.00
2022-08-16T06:54:39.306Z,14.00
2022-08-16T06:57:11.595Z,13.50
2022-08-16T06:59:52.390Z,13.25
2022-08-16T07:02:36.542Z,16.75
2022-08-16T07:05:27.173Z,19.00
2022-08-16T07:08:19.662Z,13.25
2022-08-16T07:10:49.332Z,17.50
2022-08-16T07:14:00.303Z,13.00
2022-08-16T07:16:15.855Z,14.00
2022-08-16T07:18:58.855Z,17.75
2022-08-16T07:21:45.701Z,16.00
2022-08-16T07:24:30.258Z,14.00
2022-08-16T07:27:08.390Z,15.00
2022-08-16T07:29:40.247Z,15.50
2022-08-16T07:32:11.454Z,15.75
2022-08-16T07:34:48.151Z,20.00
2022-08-16T07:37:22.345Z,15.50
2022-08-16T07:40:11.313Z,19.75
2022-08-16T07:42:45.528Z,15.50
2022-08-16T07:45:16.911Z,15.25
2022-08-16T07:47:51.903Z,15.00
2022-08-16T07:50:57.033Z,14.00
2022-08-16T07:53:12.736Z,15.25
2022-08-16T07:55:45.659Z,13.00
2022-08-16T07:58:34.686Z,15.00
2022-08-16T08:01:17.279Z,15.75
2022-08-16T08:03:56.832Z,15.50
2022-08-16T08:06:37.678Z,13.00
2022-08-16T08:09:37.569Z,27.25
2022-08-16T08:12:35.985Z,15.75
2022-08-16T08:15:34.265Z,14.25
2022-08-16T08:18:29.703Z,12.50
2022-08-16T08:21:18.272Z,15.75
2022-08-16T08:24:09.402Z,16.25
2022-08-16T08:26:59.697Z,13.75
2022-08-16T08:29:46.188Z,17.75
2022-08-16T08:32:57.605Z,14.50
2022-08-16T08:35:27.023Z,14.00
2022-08-16T08:37:57.439Z,15.00
2022-08-16T08:40:30.374Z,16.50
2022-08-16T08:43:11.827Z,19.50
2022-08-16T08:45:49.205Z,14.50
2022-08-16T08:48:33.403Z,16.00
2022-08-16T08:51:08.695Z,15.25
2022-08-16T08:53:58.933Z,20.00
2022-08-16T08:56:34.923Z,14.75
2022-08-16T08:59:13.466Z,18.25
2022-08-16T09:01:57.014Z,16.00
2022-08-16T09:04:35.271Z,14.00
2022-08-16T09:07:08.023Z,14.00
2022-08-16T09:09:41.020Z,21.25
2022-08-16T09:12:30.147Z,18.50
2022-08-16T09:15:07.363Z,15.75
2022-08-16T09:17:51.984Z,22.00
2022-08-16T09:20:26.519Z,16.00
2022-08-16T09:22:57.130Z,19.75
2022-08-16T09:25:37.334Z,20.75
2022-08-16T09:28:10.571Z,23.50
2022-08-16T09:30:46.847Z,21.00
2022-08-16T09:33:21.375Z,20.50
2022-08-16T09:35:53.018Z,21.00
2022-08-16T09:38:31.738Z,18.00
2022-08-16T09:41:02.659Z,20.50
2022-08-16T09:43:59.486Z,31.00
2022-08-16T09:46:44.418Z,20.75
2022-08-16T09:49:12.684Z,19.75
2022-08-16T09:51:42.312Z,24.50
2022-08-16T09:54:16.950Z,21.75
2022-08-16T09:56:51.441Z,27.00
2022-08-16T09:59:25.198Z,28.50
2022-08-16T10:01:55.180Z,33.50
2022-08-16T10:04:38.897Z,29.25
2022-08-16T10:07:25.708Z,29.00
2022-08-16T10:10:19.218Z,32.50
2022-08-16T10:16:21.745Z,29.50
2022-08-16T10:19:01.350Z,36.50
2022-08-16T10:21:56.231Z,34.25
2022-08-16T10:24:55.943Z,40.25
2022-08-16T10:27:53.266Z,40.00
2022-08-16T10:30:39.010Z,37.25
2022-08-16T10:33:14.863Z,36.00
2022-08-16T10:35:46.988Z,34.25
2022-08-16T10:38:27.079Z,37.50
2022-08-16T10:40:57.301Z,37.00
2022-08-16T10:43:31.003Z,41.50
2022-08-16T10:46:01.417Z,34.00
2022-08-16T10:48:31.251Z,40.00
2022-08-16T10:51:01.019Z,42.00
2022-08-16T10:53:33.192Z,44.25
2022-08-16T10:56:06.341Z,39.00
2022-08-16T10:58:56.150Z,44.75
2022-08-16T11:01:43.526Z,38.00
2022-08-16T11:07:08.165Z,44.75
2022-08-16T11:09:43.894Z,40.50
2022-08-16T11:12:14.775Z,44.25
2022-08-16T11:17:34.974Z,48.75
2022-08-16T11:22:55.220Z,46.75
2022-08-16T11:28:36.496Z,38.75
2022-08-16T11:31:06.367Z,45.25
2022-08-16T11:33:53.106Z,49.25
2022-08-16T11:36:27.934Z,40.00
2022-08-16T11:38:59.381Z,40.25
2022-08-16T11:41:32.270Z,47.25
2022-08-16T11:44:02.694Z,49.25
2022-08-16T11:46:44.879Z,44.75
2022-08-16T11:49:16.556Z,43.75
2022-08-16T11:51:46.768Z,43.50
2022-08-16T11:54:20.796Z,46.50
2022-08-16T11:56:57.399Z,37.75
2022-08-16T11:59:30.419Z,46.50
2022-08-16T12:02:04.447Z,48.75
2022-08-16T12:04:53.377Z,48.25
2022-08-16T12:07:23.530Z,47.25
2022-08-16T12:09:54.082Z,48.75
2022-08-16T12:12:24.341Z,48.50
2022-08-16T12:15:00.311Z,49.00
2022-08-16T12:17:32.318Z,47.25
2022-08-16T12:20:04.917Z,49.75
2022-08-16T12:22:38.479Z,48.00
2022-08-16T12:25:10.562Z,45.00
2022-08-16T12:27:40.594Z,44.50
2022-08-16T12:30:21.350Z,52.00
2022-08-16T12:33:00.719Z,47.00
2022-08-16T12:35:59.491Z,42.75
2022-08-16T12:38:48.057Z,49.00
2022-08-16T12:41:24.479Z,43.00
2022-08-16T12:43:57.182Z,52.00
2022-08-16T12:49:58.343Z,46.00
2022-08-16T12:52:40.056Z,49.00
2022-08-16T12:55:33.654Z,45.00
2022-08-16T12:58:49.665Z,44.00
2022-08-16T13:01:23.525Z,47.75
2022-08-16T13:04:10.802Z,46.00
2022-08-16T13:06:42.409Z,45.00
2022-08-16T13:09:32.019Z,50.25
2022-08-16T13:12:25.053Z,45.00
2022-08-16T13:14:57.204Z,44.50
2022-08-16T13:17:29.818Z,41.25
2022-08-16T13:20:09.326Z,48.00
2022-08-16T13:22:42.788Z,45.75
2022-08-16T13:25:18.963Z,45.50
2022-08-16T13:28:14.855Z,45.50
2022-08-16T13:30:59.899Z,41.25
2022-08-16T13:36:45.736Z,49.00
2022-08-16T13:39:11.042Z,42.50
2022-08-16T13:41:40.492Z,43.50
2022-08-16T13:44:09.773Z,47.50
2022-08-16T13:46:39.211Z,44.25
2022-08-16T13:49:11.289Z,43.25
2022-08-16T13:51:41.119Z,45.25
2022-08-16T13:54:10.173Z,57.50
2022-08-16T13:56:40.497Z,51.25
2022-08-16T13:59:19.447Z,53.00
2022-08-16T14:01:54.424Z,42.00
2022-08-16T14:04:27.163Z,41.75
2022-08-16T14:06:57.401Z,48.00
2022-08-16T14:10:11.563Z,51.75
2022-08-16T14:12:45.076Z,49.50
2022-08-16T14:15:35.121Z,44.25
2022-08-16T14:18:52.826Z,43.50
2022-08-16T14:22:14.444Z,45.75
2022-08-16T14:25:10.090Z,44.25
2022-08-16T14:27:44.414Z,43.50
2022-08-16T14:30:15.776Z,48.50
2022-08-16T14:32:46.662Z,44.00
2022-08-16T14:35:22.056Z,46.25
2022-08-16T14:38:06.822Z,44.25
2022-08-16T14:40:36.925Z,43.50
2022-08-16T14:43:09.417Z,41.50
2022-08-16T14:45:44.967Z,46.00
2022-08-16T14:48:14.412Z,38.25
2022-08-16T14:50:45.053Z,46.00
2022-08-16T14:53:15.059Z,37.25
2022-08-16T14:55:48.490Z,42.25
2022-08-16T14:58:19.983Z,45.25
2022-08-16T15:01:20.578Z,39.50
2022-08-16T15:07:10.185Z,47.75
2022-08-16T15:09:44.618Z,44.25
2022-08-16T15:12:33.434Z,45.25
2022-08-16T15:15:12.645Z,55.50
2022-08-16T15:17:53.725Z,47.25
2022-08-16T15:20:26.148Z,45.50
2022-08-16T15:22:56.738Z,44.25
2022-08-16T15:25:29.634Z,45.25
2022-08-16T15:28:05.380Z,44.25
2022-08-16T15:30:56.708Z,48.25
2022-08-16T15:33:26.039Z,39.75
2022-08-16T15:35:58.169Z,42.00
2022-08-16T15:38:58.059Z,41.00
2022-08-16T15:41:44.164Z,48.00
2022-08-16T15:45:03.030Z,46.00
2022-08-16T15:48:20.260Z,46.50
2022-08-16T15:51:05.295Z,36.75
2022-08-16T15:54:05.626Z,42.75
2022-08-16T15:56:42.647Z,43.25
2022-08-16T15:59:12.510Z,40.00
2022-08-16T16:01:43.667Z,41.25
2022-08-16T16:04:22.678Z,46.75
2022-08-16T16:06:54.835Z,42.50
2022-08-16T16:09:34.723Z,41.75
2022-08-16T16:12:34.226Z,43.75
2022-08-16T16:14:59.644Z,40.75
2022-08-16T16:17:32.372Z,49.00
2022-08-16T16:20:01.785Z,43.00
2022-08-16T16:22:31.937Z,39.00
2022-08-16T16:25:01.332Z,42.75
2022-08-16T16:27:45.661Z,42.50
2022-08-16T16:30:37.641Z,45.50
2022-08-16T16:36:05.754Z,44.75
2022-08-16T16:38:41.966Z,44.00
2022-08-16T16:41:12.284Z,44.50
2022-08-16T16:43:43.118Z,37.75
2022-08-16T16:46:39.276Z,41.50
2022-08-16T16:49:10.317Z,43.50
2022-08-16T16:51:41.333Z,41.50
2022-08-16T16:54:28.109Z,43.25
2022-08-16T17:00:29.915Z,36.25
2022-08-16T17:03:46.118Z,38.50
2022-08-16T17:09:59.746Z,37.25
2022-08-16T17:12:46.604Z,43.50
2022-08-16T17:15:17.001Z,43.50
2022-08-16T17:17:59.933Z,45.00
2022-08-16T17:20:31.102Z,38.75
2022-08-16T17:23:01.200Z,42.00
2022-08-16T17:25:36.295Z,40.25
2022-08-16T17:28:57.589Z,39.75
2022-08-16T17:30:56.704Z,40.25
2022-08-16T17:33:26.675Z,38.50
2022-08-16T17:36:08.549Z,42.25
2022-08-16T17:38:44.717Z,41.75
2022-08-16T17:41:16.596Z,41.75
2022-08-16T17:43:46.451Z,38.00
2022-08-16T17:46:41.475Z,37.00
2022-08-16T17:49:06.943Z,37.25
2022-08-16T17:51:39.841Z,43.50
2022-08-16T17:54:20.568Z,42.50
2022-08-16T17:57:00.714Z,43.25
2022-08-16T17:59:31.735Z,40.25
2022-08-16T18:02:49.160Z,42.50
2022-08-16T18:05:09.735Z,40.00
2022-08-16T18:07:39.017Z,40.75
2022-08-16T18:10:09.462Z,42.00
2022-08-16T18:12:51.282Z,43.25
2022-08-16T18:15:26.383Z,44.75
2022-08-16T18:17:55.978Z,41.25
2022-08-16T18:20:43.400Z,43.00
2022-08-16T18:23:20.738Z,43.25
2022-08-16T18:25:53.061Z,48.50
2022-08-16T18:28:22.623Z,41.50
2022-08-16T18:30:54.279Z,43.50
2022-08-16T18:33:27.853Z,44.00
2022-08-16T18:35:57.894Z,46.75
2022-08-16T18:38:27.874Z,42.00
2022-08-16T18:40:57.559Z,44.50
2022-08-16T18:44:23.717Z,41.25
2022-08-16T18:46:19.038Z,45.25
2022-08-16T18:48:48.348Z,45.50
2022-08-16T18:51:26.578Z,45.50
2022-08-16T18:54:22.002Z,47.50
2022-08-16T18:56:57.075Z,44.75
2022-08-16T18:59:32.059Z,46.00
2022-08-16T19:02:04.464Z,44.00
2022-08-16T19:04:54.991Z,42.00
2022-08-16T19:07:30.894Z,46.00
2022-08-16T19:10:05.149Z,46.00
2022-08-16T19:12:38.360Z,43.00
2022-08-16T19:15:14.375Z,48.75
2022-08-16T19:17:46.170Z,46.50
2022-08-16T19:20:16.435Z,42.75
2022-08-16T19:23:04.520Z,46.00
2022-08-16T19:25:47.988Z,46.25
2022-08-16T19:28:51.366Z,45.00
2022-08-16T19:31:20.617Z,44.25
2022-08-16T19:33:53.721Z,45.50
2022-08-16T19:36:31.775Z,46.50
2022-08-16T19:39:05.298Z,44.50
2022-08-16T19:41:36.506Z,44.00
2022-08-16T19:44:07.173Z,47.25
2022-08-16T19:46:37.897Z,45.25
2022-08-16T19:49:07.899Z,48.00
2022-08-16T19:51:37.855Z,47.25
2022-08-16T19:54:07.254Z,44.50
2022-08-16T19:56:36.549Z,47.50
2022-08-16T19:59:22.400Z,46.50
2022-08-16T20:01:55.236Z,46.25
2022-08-16T20:04:25.116Z,47.50
2022-08-16T20:06:54.834Z,48.75
2022-08-16T20:09:24.742Z,47.50
2022-08-16T20:11:54.778Z,49.25
2022-08-16T20:14:26.318Z,45.00
2022-08-16T20:16:57.255Z,49.25
2022-08-16T20:19:36.352Z,49.00
2022-08-16T20:22:49.736Z,49.75
2022-08-16T20:25:12.808Z,48.50
2022-08-16T20:27:42.534Z,51.25
2022-08-16T20:30:15.343Z,56.00
2022-08-16T20:32:46.020Z,58.50
2022-08-16T20:35:18.462Z,60.75
2022-08-16T20:37:48.790Z,59.50
2022-08-16T20:40:28.191Z,64.50
2022-08-16T20:43:12.618Z,62.25
2022-08-16T20:45:43.483Z,63.25
2022-08-16T20:48:13.611Z,61.75
2022-08-16T20:50:43.244Z,58.00
2022-08-16T20:53:13.007Z,54.00
2022-08-16T20:55:43.021Z,51.75
2022-08-16T20:58:12.448Z,53.50
2022-08-16T21:00:42.443Z,53.50
2022-08-16T21:03:13.296Z,50.75
2022-08-16T21:05:42.893Z,59.00
2022-08-16T21:08:29.399Z,58.50
2022-08-16T21:11:03.471Z,51.50
2022-08-16T21:13:33.878Z,52.25
2022-08-16T21:16:03.999Z,52.25
2022-08-16T21:18:33.294Z,54.00
2022-08-16T21:21:02.575Z,52.50
2022-08-16T21:23:32.206Z,51.75
2022-08-16T21:26:01.638Z,52.00
2022-08-16T21:28:40.426Z,59.00
2022-08-16T21:31:13.493Z,55.25
2022-08-16T21:33:44.316Z,57.00
2022-08-16T21:36:17.006Z,60.75
2022-08-16T21:39:06.839Z,55.75
2022-08-16T21:41:37.119Z,51.50
2022-08-16T21:44:06.877Z,55.75
2022-08-16T21:46:36.195Z,52.25
2022-08-16T21:49:07.094Z,60.75
2022-08-16T21:51:37.452Z,56.50
2022-08-16T21:54:06.838Z,60.75
2022-08-16T21:56:36.172Z,53.75
2022-08-16T21:59:12.166Z,55.25
2022-08-16T22:01:43.165Z,54.25
2022-08-16T22:04:37.758Z,55.50
2022-08-16T22:07:03.060Z,60.50
2022-08-16T22:09:32.362Z,53.00
2022-08-16T22:12:01.588Z,55.25
2022-08-16T22:14:30.925Z,51.50
2022-08-16T22:17:00.381Z,56.25
2022-08-16T22:19:29.821Z,54.00
2022-08-16T22:21:59.199Z,52.00
2022-08-16T22:24:28.528Z,59.00
2022-08-16T22:26:57.916Z,55.50
2022-08-16T22:29:27.200Z,54.00
2022-08-16T22:31:56.940Z,55.75
2022-08-16T22:34:26.460Z,60.25
2022-08-16T22:36:55.780Z,57.25
2022-08-16T22:39:25.559Z,55.50
2022-08-16T22:41:55.201Z,54.00
2022-08-16T22:44:25.703Z,58.25
2022-08-16T22:46:55.050Z,58.25
2022-08-16T22:49:24.393Z,59.25
2022-08-16T22:51:53.921Z,61.00
2022-08-16T22:54:41.266Z,61.00
2022-08-16T22:57:13.677Z,54.75
2022-08-16T22:59:43.152Z,62.00
2022-08-16T23:02:12.646Z,62.50
2022-08-16T23:04:41.960Z,58.75
2022-08-16T23:07:11.258Z,63.75
2022-08-16T23:09:40.605Z,62.00
2022-08-16T23:12:10.217Z,59.75
2022-08-16T23:14:39.500Z,60.25
2022-08-16T23:17:09.480Z,59.50
2022-08-16T23:19:39.033Z,61.75
2022-08-16T23:22:08.635Z,59.75
2022-08-16T23:24:53.019Z,62.50
2022-08-16T23:27:27.195Z,55.75
2022-08-16T23:29:56.538Z,55.00
2022-08-16T23:32:25.850Z,59.25
2022-08-16T23:34:55.335Z,60.50
2022-08-16T23:37:28.201Z,60.50
2022-08-16T23:39:57.505Z,58.75
2022-08-16T23:42:44.164Z,57.75
2022-08-16T23:45:16.718Z,61.75
2022-08-16T23:47:45.960Z,59.00
2022-08-16T23:50:15.635Z,57.50
2022-08-16T23:53:06.080Z,57.50
2022-08-16T23:55:40.033Z,60.50
2022-08-16T23:58:10.832Z,59.25
